メインページ
METAR-TAF:

METAR-TAF

空港 :

カトヴィツェ, ポーランド

緯度: 50-28-27N, 経度: 019-04-48E, 海抜: 284m

現時点の気象観測

当レポートは22分前の09:00(UTC)に作成
南西の風 6kt、から西の間で変化する
気温 24°C
湿度 47%
気圧 1016 hPa
視程10km以上
高度4100ftの雲はほとんどない

METAR: EPKT 170900Z 22006KT 190V270 9999 FEW041 24/12 Q1016

時間: 11:22 (09:22 UTC)

予報

当レポートは3時間52分前の05:30(UTC)に作成
予報は17日の 06時(UTC)から 18日の 06時(UTC)まで有効
の風 5kt
視程10km以上
1,500メートル以下は雲なし、積乱雲なし

TAF: EPKT 170530Z 1706/1806 19005KT CAVOK

4,000以上の空港の気象観測と天気予報(METAR報とTAF報)

利用可能な観測所は地図上に黄色い丸と赤い丸で示す。

丸の上にカーソルを重ねると観測所名を参照できる。

次にクリックすると気象観測と天気予報を参照できる。

マップの切り替え:黒色「×」印の緑ボタンをクリックして拡大、「-」印の緑ボタンをクリックして縮小、緑色の三角印をクリックして隣りの地図に切り替え


METAR-TAF: